sensor_id;sensor_type;location;lat;lon;timestamp;temperature;humidity
47022;DHT22;32779;52.264;6.154;2022-07-23T00:02:05;15.40;99.90
47022;DHT22;32779;52.264;6.154;2022-07-23T00:04:32;15.30;99.90
47022;DHT22;32779;52.264;6.154;2022-07-23T00:06:58;15.30;99.90
47022;DHT22;32779;52.264;6.154;2022-07-23T00:09:23;15.20;99.90
47022;DHT22;32779;52.264;6.154;2022-07-23T00:11:49;15.20;99.90
47022;DHT22;32779;52.264;6.154;2022-07-23T00:14:15;15.10;99.90
47022;DHT22;32779;52.264;6.154;2022-07-23T00:16:40;15.20;99.90
47022;DHT22;32779;52.264;6.154;2022-07-23T00:19:06;15.20;99.90
47022;DHT22;32779;52.264;6.154;2022-07-23T00:21:31;15.10;99.90
47022;DHT22;32779;52.264;6.154;2022-07-23T00:23:56;15.10;99.90
47022;DHT22;32779;52.264;6.154;2022-07-23T00:26:22;15.10;99.90
47022;DHT22;32779;52.264;6.154;2022-07-23T00:28:47;15.10;99.90
47022;DHT22;32779;52.264;6.154;2022-07-23T00:31:13;15.10;99.90
47022;DHT22;32779;52.264;6.154;2022-07-23T00:33:39;15.10;99.90
47022;DHT22;32779;52.264;6.154;2022-07-23T00:36:04;15.10;99.90
47022;DHT22;32779;52.264;6.154;2022-07-23T00:38:30;15.10;99.90
47022;DHT22;32779;52.264;6.154;2022-07-23T00:40:55;15.00;99.90
47022;DHT22;32779;52.264;6.154;2022-07-23T00:43:21;14.90;99.90
47022;DHT22;32779;52.264;6.154;2022-07-23T00:45:47;14.90;99.90
47022;DHT22;32779;52.264;6.154;2022-07-23T00:48:12;14.80;99.90
47022;DHT22;32779;52.264;6.154;2022-07-23T00:50:38;14.80;99.90
47022;DHT22;32779;52.264;6.154;2022-07-23T00:53:04;14.80;99.90
47022;DHT22;32779;52.264;6.154;2022-07-23T00:55:30;14.70;99.90
47022;DHT22;32779;52.264;6.154;2022-07-23T00:57:57;14.80;99.90
47022;DHT22;32779;52.264;6.154;2022-07-23T01:00:23;14.80;99.90
47022;DHT22;32779;52.264;6.154;2022-07-23T01:02:49;14.70;99.90
47022;DHT22;32779;52.264;6.154;2022-07-23T01:05:15;14.70;99.90
47022;DHT22;32779;52.264;6.154;2022-07-23T01:07:42;14.60;99.90
47022;DHT22;32779;52.264;6.154;2022-07-23T01:10:08;14.60;99.90
47022;DHT22;32779;52.264;6.154;2022-07-23T01:12:54;14.60;99.90
47022;DHT22;32779;52.264;6.154;2022-07-23T01:15:20;14.50;99.90
47022;DHT22;32779;52.264;6.154;2022-07-23T01:17:45;14.50;99.90
47022;DHT22;32779;52.264;6.154;2022-07-23T01:20:11;14.40;99.90
47022;DHT22;32779;52.264;6.154;2022-07-23T01:22:36;14.40;99.90
47022;DHT22;32779;52.264;6.154;2022-07-23T01:25:02;14.40;99.90
47022;DHT22;32779;52.264;6.154;2022-07-23T01:27:27;14.30;99.90
47022;DHT22;32779;52.264;6.154;2022-07-23T01:29:54;14.30;99.90
47022;DHT22;32779;52.264;6.154;2022-07-23T01:32:20;14.30;99.90
47022;DHT22;32779;52.264;6.154;2022-07-23T01:34:45;14.30;99.90
47022;DHT22;32779;52.264;6.154;2022-07-23T01:37:11;14.40;99.90
47022;DHT22;32779;52.264;6.154;2022-07-23T01:39:36;14.40;99.90
47022;DHT22;32779;52.264;6.154;2022-07-23T01:42:02;14.30;99.90
47022;DHT22;32779;52.264;6.154;2022-07-23T01:44:27;14.40;99.90
47022;DHT22;32779;52.264;6.154;2022-07-23T01:46:53;14.30;99.90
47022;DHT22;32779;52.264;6.154;2022-07-23T01:49:20;14.30;99.90
47022;DHT22;32779;52.264;6.154;2022-07-23T01:51:46;14.30;99.90
47022;DHT22;32779;52.264;6.154;2022-07-23T01:54:31;14.20;99.90
47022;DHT22;32779;52.264;6.154;2022-07-23T01:56:57;14.10;99.90
47022;DHT22;32779;52.264;6.154;2022-07-23T01:59:23;14.10;99.90
47022;DHT22;32779;52.264;6.154;2022-07-23T02:01:50;13.90;99.90
47022;DHT22;32779;52.264;6.154;2022-07-23T02:04:22;14.00;99.90
47022;DHT22;32779;52.264;6.154;2022-07-23T02:06:48;14.00;99.90
47022;DHT22;32779;52.264;6.154;2022-07-23T02:09:14;14.00;99.90
47022;DHT22;32779;52.264;6.154;2022-07-23T02:11:39;13.90;99.90
47022;DHT22;32779;52.264;6.154;2022-07-23T02:14:05;13.90;99.90
47022;DHT22;32779;52.264;6.154;2022-07-23T02:16:30;13.80;99.90
47022;DHT22;32779;52.264;6.154;2022-07-23T02:18:56;13.80;99.90
47022;DHT22;32779;52.264;6.154;2022-07-23T02:21:23;13.80;99.90
47022;DHT22;32779;52.264;6.154;2022-07-23T02:23:48;13.90;99.90
47022;DHT22;32779;52.264;6.154;2022-07-23T02:26:14;13.90;99.90
47022;DHT22;32779;52.264;6.154;2022-07-23T02:28:39;13.90;99.90
47022;DHT22;32779;52.264;6.154;2022-07-23T02:31:05;13.80;99.90
47022;DHT22;32779;52.264;6.154;2022-07-23T02:33:32;13.70;99.90
47022;DHT22;32779;52.264;6.154;2022-07-23T02:35:58;13.60;99.90
47022;DHT22;32779;52.264;6.154;2022-07-23T02:38:23;13.50;99.90
47022;DHT22;32779;52.264;6.154;2022-07-23T02:40:49;13.50;99.90
47022;DHT22;32779;52.264;6.154;2022-07-23T02:43:14;13.50;99.90
47022;DHT22;32779;52.264;6.154;2022-07-23T02:45:40;13.40;99.90
47022;DHT22;32779;52.264;6.154;2022-07-23T02:48:05;13.40;99.90
47022;DHT22;32779;52.264;6.154;2022-07-23T02:50:31;13.40;99.90
47022;DHT22;32779;52.264;6.154;2022-07-23T02:52:57;13.50;99.90
47022;DHT22;32779;52.264;6.154;2022-07-23T02:55:22;13.50;99.90
47022;DHT22;32779;52.264;6.154;2022-07-23T02:57:48;13.50;99.90
47022;DHT22;32779;52.264;6.154;2022-07-23T03:00:13;13.50;99.90
47022;DHT22;32779;52.264;6.154;2022-07-23T03:02:39;13.50;99.90
47022;DHT22;32779;52.264;6.154;2022-07-23T03:05:05;13.40;99.90
47022;DHT22;32779;52.264;6.154;2022-07-23T03:07:30;13.40;99.90
47022;DHT22;32779;52.264;6.154;2022-07-23T03:09:56;13.30;99.90
47022;DHT22;32779;52.264;6.154;2022-07-23T03:12:22;13.30;99.90
47022;DHT22;32779;52.264;6.154;2022-07-23T03:14:50;13.30;99.90
47022;DHT22;32779;52.264;6.154;2022-07-23T03:17:15;13.30;99.90
47022;DHT22;32779;52.264;6.154;2022-07-23T03:19:41;13.20;99.90
47022;DHT22;32779;52.264;6.154;2022-07-23T03:22:06;13.20;99.90
47022;DHT22;32779;52.264;6.154;2022-07-23T03:24:32;13.20;99.90
47022;DHT22;32779;52.264;6.154;2022-07-23T03:27:16;13.30;99.90
47022;DHT22;32779;52.264;6.154;2022-07-23T03:29:42;13.30;99.90
47022;DHT22;32779;52.264;6.154;2022-07-23T03:32:07;13.20;99.90
47022;DHT22;32779;52.264;6.154;2022-07-23T03:34:33;13.10;99.90
47022;DHT22;32779;52.264;6.154;2022-07-23T03:36:58;13.10;99.90
47022;DHT22;32779;52.264;6.154;2022-07-23T03:39:24;13.00;99.90
47022;DHT22;32779;52.264;6.154;2022-07-23T03:41:50;13.00;99.90
47022;DHT22;32779;52.264;6.154;2022-07-23T03:44:15;13.00;99.90
47022;DHT22;32779;52.264;6.154;2022-07-23T03:46:41;12.90;99.90
47022;DHT22;32779;52.264;6.154;2022-07-23T03:49:06;13.00;99.90
47022;DHT22;32779;52.264;6.154;2022-07-23T03:51:32;13.00;99.90
47022;DHT22;32779;52.264;6.154;2022-07-23T03:53:58;13.00;99.90
47022;DHT22;32779;52.264;6.154;2022-07-23T03:56:23;13.00;99.90
47022;DHT22;32779;52.264;6.154;2022-07-23T03:58:49;13.10;99.90
47022;DHT22;32779;52.264;6.154;2022-07-23T04:01:15;13.10;99.90
47022;DHT22;32779;52.264;6.154;2022-07-23T04:03:40;13.10;99.90
47022;DHT22;32779;52.264;6.154;2022-07-23T04:06:06;13.10;99.90
47022;DHT22;32779;52.264;6.154;2022-07-23T04:08:32;13.10;99.90
47022;DHT22;32779;52.264;6.154;2022-07-23T04:10:58;13.10;99.90
47022;DHT22;32779;52.264;6.154;2022-07-23T04:13:23;13.10;99.90
47022;DHT22;32779;52.264;6.154;2022-07-23T04:15:49;13.10;99.90
47022;DHT22;32779;52.264;6.154;2022-07-23T04:18:16;13.00;99.90
47022;DHT22;32779;52.264;6.154;2022-07-23T04:20:43;13.00;99.90
47022;DHT22;32779;52.264;6.154;2022-07-23T04:23:08;13.00;99.90
47022;DHT22;32779;52.264;6.154;2022-07-23T04:25:35;13.00;99.90
47022;DHT22;32779;52.264;6.154;2022-07-23T04:28:00;13.10;99.90
47022;DHT22;32779;52.264;6.154;2022-07-23T04:30:26;13.10;99.90
47022;DHT22;32779;52.264;6.154;2022-07-23T04:32:51;13.20;99.90
47022;DHT22;32779;52.264;6.154;2022-07-23T04:35:17;13.20;99.90
47022;DHT22;32779;52.264;6.154;2022-07-23T04:37:42;13.20;99.90
47022;DHT22;32779;52.264;6.154;2022-07-23T04:40:08;13.20;99.90
47022;DHT22;32779;52.264;6.154;2022-07-23T04:42:34;13.30;99.90
47022;DHT22;32779;52.264;6.154;2022-07-23T04:44:59;13.30;99.90
47022;DHT22;32779;52.264;6.154;2022-07-23T04:47:25;13.30;99.90
47022;DHT22;32779;52.264;6.154;2022-07-23T04:49:50;13.40;99.90
47022;DHT22;32779;52.264;6.154;2022-07-23T04:52:16;13.50;99.90
47022;DHT22;32779;52.264;6.154;2022-07-23T04:54:41;13.50;99.90
47022;DHT22;32779;52.264;6.154;2022-07-23T04:57:07;13.60;99.90
47022;DHT22;32779;52.264;6.154;2022-07-23T04:59:32;13.60;99.90
47022;DHT22;32779;52.264;6.154;2022-07-23T05:01:58;13.60;99.90
47022;DHT22;32779;52.264;6.154;2022-07-23T05:04:23;13.60;99.90
47022;DHT22;32779;52.264;6.154;2022-07-23T05:06:49;13.70;99.90
47022;DHT22;32779;52.264;6.154;2022-07-23T05:09:14;13.70;99.90
47022;DHT22;32779;52.264;6.154;2022-07-23T05:11:40;13.80;99.90
47022;DHT22;32779;52.264;6.154;2022-07-23T05:14:05;13.90;99.90
47022;DHT22;32779;52.264;6.154;2022-07-23T05:16:31;13.90;99.90
47022;DHT22;32779;52.264;6.154;2022-07-23T05:18:57;13.90;99.90
47022;DHT22;32779;52.264;6.154;2022-07-23T05:21:22;13.90;99.90
47022;DHT22;32779;52.264;6.154;2022-07-23T05:23:48;14.00;99.90
47022;DHT22;32779;52.264;6.154;2022-07-23T05:26:13;14.00;99.90
47022;DHT22;32779;52.264;6.154;2022-07-23T05:28:39;14.10;99.90
47022;DHT22;32779;52.264;6.154;2022-07-23T05:31:07;14.10;99.90
47022;DHT22;32779;52.264;6.154;2022-07-23T05:33:33;14.20;99.90
47022;DHT22;32779;52.264;6.154;2022-07-23T05:36:03;14.30;99.90
47022;DHT22;32779;52.264;6.154;2022-07-23T05:38:29;14.30;99.90
47022;DHT22;32779;52.264;6.154;2022-07-23T05:40:54;14.40;99.90
47022;DHT22;32779;52.264;6.154;2022-07-23T05:43:20;14.50;99.90
47022;DHT22;32779;52.264;6.154;2022-07-23T05:45:46;14.60;99.90
47022;DHT22;32779;52.264;6.154;2022-07-23T05:48:11;14.70;99.90
47022;DHT22;32779;52.264;6.154;2022-07-23T05:50:36;14.70;99.90
47022;DHT22;32779;52.264;6.154;2022-07-23T05:53:02;14.80;99.90
47022;DHT22;32779;52.264;6.154;2022-07-23T05:55:27;14.80;99.90
47022;DHT22;32779;52.264;6.154;2022-07-23T05:57:55;14.80;99.90
47022;DHT22;32779;52.264;6.154;2022-07-23T06:00:21;14.80;99.90
47022;DHT22;32779;52.264;6.154;2022-07-23T06:02:47;14.90;99.90
47022;DHT22;32779;52.264;6.154;2022-07-23T06:05:12;15.00;99.90
47022;DHT22;32779;52.264;6.154;2022-07-23T06:07:38;15.00;99.90
47022;DHT22;32779;52.264;6.154;2022-07-23T06:10:03;15.10;99.90
47022;DHT22;32779;52.264;6.154;2022-07-23T06:12:29;15.10;99.90
47022;DHT22;32779;52.264;6.154;2022-07-23T06:14:55;15.20;99.90
47022;DHT22;32779;52.264;6.154;2022-07-23T06:17:20;15.20;99.90
47022;DHT22;32779;52.264;6.154;2022-07-23T06:19:46;15.30;99.90
47022;DHT22;32779;52.264;6.154;2022-07-23T06:22:11;15.40;99.90
47022;DHT22;32779;52.264;6.154;2022-07-23T06:24:37;15.40;99.90
47022;DHT22;32779;52.264;6.154;2022-07-23T06:27:03;15.60;99.90
47022;DHT22;32779;52.264;6.154;2022-07-23T06:29:28;15.70;99.90
47022;DHT22;32779;52.264;6.154;2022-07-23T06:31:54;15.80;99.90
47022;DHT22;32779;52.264;6.154;2022-07-23T06:34:19;15.90;99.90
47022;DHT22;32779;52.264;6.154;2022-07-23T06:36:45;16.00;99.90
47022;DHT22;32779;52.264;6.154;2022-07-23T06:39:10;16.20;99.90
47022;DHT22;32779;52.264;6.154;2022-07-23T06:41:36;16.40;99.90
47022;DHT22;32779;52.264;6.154;2022-07-23T06:44:02;16.50;99.90
47022;DHT22;32779;52.264;6.154;2022-07-23T06:46:29;16.70;99.90
47022;DHT22;32779;52.264;6.154;2022-07-23T06:48:54;16.90;99.90
47022;DHT22;32779;52.264;6.154;2022-07-23T06:51:20;17.20;99.90
47022;DHT22;32779;52.264;6.154;2022-07-23T06:53:46;17.40;99.90
47022;DHT22;32779;52.264;6.154;2022-07-23T06:56:11;17.60;99.90
47022;DHT22;32779;52.264;6.154;2022-07-23T06:58:37;17.80;99.90
47022;DHT22;32779;52.264;6.154;2022-07-23T07:01:03;18.00;99.90
47022;DHT22;32779;52.264;6.154;2022-07-23T07:03:28;18.30;99.90
47022;DHT22;32779;52.264;6.154;2022-07-23T07:05:54;18.60;99.90
47022;DHT22;32779;52.264;6.154;2022-07-23T07:08:19;18.80;99.90
47022;DHT22;32779;52.264;6.154;2022-07-23T07:10:45;19.10;99.90
47022;DHT22;32779;52.264;6.154;2022-07-23T07:13:12;19.40;99.90
47022;DHT22;32779;52.264;6.154;2022-07-23T07:15:38;19.50;99.90
47022;DHT22;32779;52.264;6.154;2022-07-23T07:18:04;19.70;99.90
47022;DHT22;32779;52.264;6.154;2022-07-23T07:20:29;19.80;99.90
47022;DHT22;32779;52.264;6.154;2022-07-23T07:22:55;19.90;99.90
47022;DHT22;32779;52.264;6.154;2022-07-23T07:25:20;20.00;99.90
47022;DHT22;32779;52.264;6.154;2022-07-23T07:27:46;20.00;99.90
47022;DHT22;32779;52.264;6.154;2022-07-23T07:30:12;20.10;99.90
47022;DHT22;32779;52.264;6.154;2022-07-23T07:32:38;20.30;99.90
47022;DHT22;32779;52.264;6.154;2022-07-23T07:35:05;20.40;99.90
47022;DHT22;32779;52.264;6.154;2022-07-23T07:37:30;20.60;99.90
47022;DHT22;32779;52.264;6.154;2022-07-23T07:39:56;20.60;99.90
47022;DHT22;32779;52.264;6.154;2022-07-23T07:42:21;20.50;99.90
47022;DHT22;32779;52.264;6.154;2022-07-23T07:44:47;20.40;99.90
47022;DHT22;32779;52.264;6.154;2022-07-23T07:47:12;20.30;99.90
47022;DHT22;32779;52.264;6.154;2022-07-23T07:49:41;20.30;99.90
47022;DHT22;32779;52.264;6.154;2022-07-23T07:52:06;20.20;99.90
47022;DHT22;32779;52.264;6.154;2022-07-23T07:54:32;20.20;99.90
47022;DHT22;32779;52.264;6.154;2022-07-23T07:56:58;20.30;99.90
47022;DHT22;32779;52.264;6.154;2022-07-23T07:59:23;20.50;99.90
47022;DHT22;32779;52.264;6.154;2022-07-23T08:01:49;20.50;99.90
47022;DHT22;32779;52.264;6.154;2022-07-23T08:04:15;20.50;99.90
47022;DHT22;32779;52.264;6.154;2022-07-23T08:06:40;20.50;99.90
47022;DHT22;32779;52.264;6.154;2022-07-23T08:09:06;20.60;99.90
47022;DHT22;32779;52.264;6.154;2022-07-23T08:11:31;20.70;99.90
47022;DHT22;32779;52.264;6.154;2022-07-23T08:13:57;20.90;99.30
47022;DHT22;32779;52.264;6.154;2022-07-23T08:16:22;21.10;99.00
47022;DHT22;32779;52.264;6.154;2022-07-23T08:18:48;21.40;98.80
47022;DHT22;32779;52.264;6.154;2022-07-23T08:21:13;21.60;98.50
47022;DHT22;32779;52.264;6.154;2022-07-23T08:23:39;21.90;98.80
47022;DHT22;32779;52.264;6.154;2022-07-23T08:26:05;22.10;99.00
47022;DHT22;32779;52.264;6.154;2022-07-23T08:28:30;22.40;98.00
47022;DHT22;32779;52.264;6.154;2022-07-23T08:30:59;22.50;97.80
47022;DHT22;32779;52.264;6.154;2022-07-23T08:33:25;22.40;97.20
47022;DHT22;32779;52.264;6.154;2022-07-23T08:35:51;22.20;98.00
47022;DHT22;32779;52.264;6.154;2022-07-23T08:38:20;22.30;98.10
47022;DHT22;32779;52.264;6.154;2022-07-23T08:40:48;22.20;96.20
47022;DHT22;32779;52.264;6.154;2022-07-23T08:43:21;21.80;96.40
47022;DHT22;32779;52.264;6.154;2022-07-23T08:45:49;21.60;97.00
47022;DHT22;32779;52.264;6.154;2022-07-23T08:48:21;21.50;97.80
47022;DHT22;32779;52.264;6.154;2022-07-23T08:50:52;21.70;98.30
47022;DHT22;32779;52.264;6.154;2022-07-23T08:53:18;22.00;97.20
47022;DHT22;32779;52.264;6.154;2022-07-23T08:55:45;22.10;96.60
47022;DHT22;32779;52.264;6.154;2022-07-23T08:58:12;22.40;97.60
47022;DHT22;32779;52.264;6.154;2022-07-23T09:00:37;22.60;95.90
47022;DHT22;32779;52.264;6.154;2022-07-23T09:03:03;22.70;96.90
47022;DHT22;32779;52.264;6.154;2022-07-23T09:05:28;22.80;95.90
47022;DHT22;32779;52.264;6.154;2022-07-23T09:13:42;22.60;96.00
47022;DHT22;32779;52.264;6.154;2022-07-23T09:16:23;22.70;97.20
47022;DHT22;32779;52.264;6.154;2022-07-23T09:18:55;23.00;95.90
47022;DHT22;32779;52.264;6.154;2022-07-23T09:21:29;23.20;94.50
47022;DHT22;32779;52.264;6.154;2022-07-23T09:26:39;23.40;94.70
47022;DHT22;32779;52.264;6.154;2022-07-23T09:29:16;23.40;94.00
47022;DHT22;32779;52.264;6.154;2022-07-23T09:31:54;23.50;94.10
47022;DHT22;32779;52.264;6.154;2022-07-23T09:34:29;23.50;95.10
47022;DHT22;32779;52.264;6.154;2022-07-23T09:37:18;23.60;95.40
47022;DHT22;32779;52.264;6.154;2022-07-23T09:39:46;23.50;94.80
47022;DHT22;32779;52.264;6.154;2022-07-23T09:42:16;23.30;95.20
47022;DHT22;32779;52.264;6.154;2022-07-23T09:44:54;23.00;95.50
47022;DHT22;32779;52.264;6.154;2022-07-23T09:47:21;22.80;95.90
47022;DHT22;32779;52.264;6.154;2022-07-23T09:52:28;22.50;95.40
47022;DHT22;32779;52.264;6.154;2022-07-23T09:54:58;22.50;96.20
47022;DHT22;32779;52.264;6.154;2022-07-23T09:57:26;22.50;95.70
47022;DHT22;32779;52.264;6.154;2022-07-23T09:59:52;22.30;95.20
47022;DHT22;32779;52.264;6.154;2022-07-23T10:02:18;22.40;96.00
47022;DHT22;32779;52.264;6.154;2022-07-23T10:04:44;22.40;95.70
47022;DHT22;32779;52.264;6.154;2022-07-23T10:07:11;22.30;96.40
47022;DHT22;32779;52.264;6.154;2022-07-23T10:09:40;22.40;96.50
47022;DHT22;32779;52.264;6.154;2022-07-23T10:12:13;22.50;96.80
47022;DHT22;32779;52.264;6.154;2022-07-23T10:14:39;22.70;97.70
47022;DHT22;32779;52.264;6.154;2022-07-23T10:17:05;23.00;95.30
47022;DHT22;32779;52.264;6.154;2022-07-23T10:19:32;23.20;94.90
47022;DHT22;32779;52.264;6.154;2022-07-23T10:24:47;23.70;94.80
47022;DHT22;32779;52.264;6.154;2022-07-23T10:36:49;23.80;93.90
47022;DHT22;32779;52.264;6.154;2022-07-23T10:41:50;23.50;94.10
47022;DHT22;32779;52.264;6.154;2022-07-23T10:44:18;23.40;94.20
47022;DHT22;32779;52.264;6.154;2022-07-23T10:47:00;23.40;93.60
47022;DHT22;32779;52.264;6.154;2022-07-23T10:49:31;23.40;93.80
47022;DHT22;32779;52.264;6.154;2022-07-23T10:54:37;23.30;94.10
47022;DHT22;32779;52.264;6.154;2022-07-23T10:57:06;23.10;94.50
47022;DHT22;32779;52.264;6.154;2022-07-23T11:02:50;23.20;95.60
47022;DHT22;32779;52.264;6.154;2022-07-23T11:05:17;23.20;95.20
47022;DHT22;32779;52.264;6.154;2022-07-23T11:10:46;23.20;93.70
47022;DHT22;32779;52.264;6.154;2022-07-23T11:24:08;23.30;94.70
47022;DHT22;32779;52.264;6.154;2022-07-23T11:26:43;23.30;93.70
47022;DHT22;32779;52.264;6.154;2022-07-23T11:34:44;23.30;94.60
47022;DHT22;32779;52.264;6.154;2022-07-23T11:37:39;23.20;94.20
47022;DHT22;32779;52.264;6.154;2022-07-23T11:40:08;23.10;95.00
47022;DHT22;32779;52.264;6.154;2022-07-23T11:42:35;23.10;93.70
47022;DHT22;32779;52.264;6.154;2022-07-23T11:45:01;23.10;94.70
47022;DHT22;32779;52.264;6.154;2022-07-23T11:47:27;23.10;94.10
47022;DHT22;32779;52.264;6.154;2022-07-23T11:49:57;23.10;94.60
47022;DHT22;32779;52.264;6.154;2022-07-23T11:52:24;23.20;95.60
47022;DHT22;32779;52.264;6.154;2022-07-23T11:54:52;23.30;95.00
47022;DHT22;32779;52.264;6.154;2022-07-23T11:57:19;23.30;95.40
47022;DHT22;32779;52.264;6.154;2022-07-23T11:59:47;23.40;94.10
47022;DHT22;32779;52.264;6.154;2022-07-23T12:02:14;23.40;93.50
47022;DHT22;32779;52.264;6.154;2022-07-23T12:04:45;23.50;95.20
47022;DHT22;32779;52.264;6.154;2022-07-23T12:07:40;23.60;94.80
47022;DHT22;32779;52.264;6.154;2022-07-23T12:10:11;23.70;94.80
47022;DHT22;32779;52.264;6.154;2022-07-23T12:12:41;23.90;94.60
47022;DHT22;32779;52.264;6.154;2022-07-23T12:15:08;24.00;94.00
47022;DHT22;32779;52.264;6.154;2022-07-23T12:17:36;24.10;94.40
47022;DHT22;32779;52.264;6.154;2022-07-23T12:20:04;24.10;93.20
47022;DHT22;32779;52.264;6.154;2022-07-23T12:22:40;23.90;94.40
47022;DHT22;32779;52.264;6.154;2022-07-23T12:25:11;24.00;95.10
47022;DHT22;32779;52.264;6.154;2022-07-23T12:27:38;24.20;94.90
47022;DHT22;32779;52.264;6.154;2022-07-23T12:32:47;24.40;94.10
47022;DHT22;32779;52.264;6.154;2022-07-23T12:35:13;24.50;94.20
47022;DHT22;32779;52.264;6.154;2022-07-23T12:37:41;24.50;94.10
47022;DHT22;32779;52.264;6.154;2022-07-23T12:40:21;24.40;93.10
47022;DHT22;32779;52.264;6.154;2022-07-23T12:42:58;24.50;94.30
47022;DHT22;32779;52.264;6.154;2022-07-23T12:45:25;24.40;93.30
47022;DHT22;32779;52.264;6.154;2022-07-23T12:48:02;24.30;93.60
47022;DHT22;32779;52.264;6.154;2022-07-23T12:50:42;24.10;93.40
47022;DHT22;32779;52.264;6.154;2022-07-23T12:55:42;24.00;93.90
47022;DHT22;32779;52.264;6.154;2022-07-23T12:58:10;24.10;93.50
47022;DHT22;32779;52.264;6.154;2022-07-23T13:00:54;24.10;93.50
47022;DHT22;32779;52.264;6.154;2022-07-23T13:03:24;24.20;94.30
47022;DHT22;32779;52.264;6.154;2022-07-23T13:05:50;24.10;93.00
47022;DHT22;32779;52.264;6.154;2022-07-23T13:08:17;24.10;93.60
47022;DHT22;32779;52.264;6.154;2022-07-23T13:10:42;24.10;93.30
47022;DHT22;32779;52.264;6.154;2022-07-23T13:13:11;24.00;94.10
47022;DHT22;32779;52.264;6.154;2022-07-23T13:15:36;23.90;94.70
47022;DHT22;32779;52.264;6.154;2022-07-23T13:18:02;23.90;94.00
47022;DHT22;32779;52.264;6.154;2022-07-23T13:20:27;23.80;94.60
47022;DHT22;32779;52.264;6.154;2022-07-23T13:22:53;23.80;94.10
47022;DHT22;32779;52.264;6.154;2022-07-23T13:25:19;23.90;93.80
47022;DHT22;32779;52.264;6.154;2022-07-23T13:27:44;24.00;94.00
47022;DHT22;32779;52.264;6.154;2022-07-23T13:30:10;24.10;93.90
47022;DHT22;32779;52.264;6.154;2022-07-23T13:32:36;24.20;94.60
47022;DHT22;32779;52.264;6.154;2022-07-23T13:35:03;24.30;93.10
47022;DHT22;32779;52.264;6.154;2022-07-23T13:37:29;24.50;94.70
47022;DHT22;32779;52.264;6.154;2022-07-23T13:39:54;24.60;93.40
47022;DHT22;32779;52.264;6.154;2022-07-23T13:42:20;24.70;93.00
47022;DHT22;32779;52.264;6.154;2022-07-23T13:44:45;24.70;92.20
47022;DHT22;32779;52.264;6.154;2022-07-23T13:47:11;24.80;93.40
47022;DHT22;32779;52.264;6.154;2022-07-23T13:49:36;24.80;91.40
47022;DHT22;32779;52.264;6.154;2022-07-23T13:52:05;24.80;92.20
47022;DHT22;32779;52.264;6.154;2022-07-23T13:54:31;24.60;91.60
47022;DHT22;32779;52.264;6.154;2022-07-23T13:56:56;24.60;93.10
47022;DHT22;32779;52.264;6.154;2022-07-23T13:59:22;24.60;92.70
47022;DHT22;32779;52.264;6.154;2022-07-23T14:01:47;24.70;92.80
47022;DHT22;32779;52.264;6.154;2022-07-23T14:04:13;24.60;91.90
47022;DHT22;32779;52.264;6.154;2022-07-23T14:06:39;24.60;92.10
47022;DHT22;32779;52.264;6.154;2022-07-23T14:09:04;24.60;93.00
47022;DHT22;32779;52.264;6.154;2022-07-23T14:11:30;24.60;92.70
47022;DHT22;32779;52.264;6.154;2022-07-23T14:13:57;24.70;92.60
47022;DHT22;32779;52.264;6.154;2022-07-23T14:16:23;24.80;92.20
47022;DHT22;32779;52.264;6.154;2022-07-23T14:18:49;24.80;92.90
47022;DHT22;32779;52.264;6.154;2022-07-23T14:21:15;24.90;91.30
47022;DHT22;32779;52.264;6.154;2022-07-23T14:23:40;24.90;91.70
47022;DHT22;32779;52.264;6.154;2022-07-23T14:26:06;24.90;92.00
47022;DHT22;32779;52.264;6.154;2022-07-23T14:28:34;24.90;91.80
47022;DHT22;32779;52.264;6.154;2022-07-23T14:31:00;24.90;92.10
47022;DHT22;32779;52.264;6.154;2022-07-23T14:33:25;24.90;91.80
47022;DHT22;32779;52.264;6.154;2022-07-23T14:35:51;24.90;92.00
47022;DHT22;32779;52.264;6.154;2022-07-23T14:38:16;24.80;93.10
47022;DHT22;32779;52.264;6.154;2022-07-23T14:40:42;24.80;93.00
47022;DHT22;32779;52.264;6.154;2022-07-23T14:43:08;24.90;92.70
47022;DHT22;32779;52.264;6.154;2022-07-23T14:45:34;25.00;92.50
47022;DHT22;32779;52.264;6.154;2022-07-23T14:48:00;25.10;93.00
47022;DHT22;32779;52.264;6.154;2022-07-23T14:50:27;25.10;93.20
47022;DHT22;32779;52.264;6.154;2022-07-23T14:52:53;25.10;92.30
47022;DHT22;32779;52.264;6.154;2022-07-23T14:55:19;25.00;92.20
47022;DHT22;32779;52.264;6.154;2022-07-23T14:57:44;24.90;92.40
47022;DHT22;32779;52.264;6.154;2022-07-23T15:00:10;24.80;92.00
47022;DHT22;32779;52.264;6.154;2022-07-23T15:02:36;24.70;92.20
47022;DHT22;32779;52.264;6.154;2022-07-23T15:05:02;24.60;92.60
47022;DHT22;32779;52.264;6.154;2022-07-23T15:07:29;24.60;92.50
47022;DHT22;32779;52.264;6.154;2022-07-23T15:09:58;24.60;92.40
47022;DHT22;32779;52.264;6.154;2022-07-23T15:12:24;24.70;93.00
47022;DHT22;32779;52.264;6.154;2022-07-23T15:14:49;24.80;92.20
47022;DHT22;32779;52.264;6.154;2022-07-23T15:17:15;24.90;92.30
47022;DHT22;32779;52.264;6.154;2022-07-23T15:19:41;24.90;92.10
47022;DHT22;32779;52.264;6.154;2022-07-23T15:22:06;24.90;92.40
47022;DHT22;32779;52.264;6.154;2022-07-23T15:24:32;25.00;92.00
47022;DHT22;32779;52.264;6.154;2022-07-23T15:26:58;25.10;92.00
47022;DHT22;32779;52.264;6.154;2022-07-23T15:29:23;25.10;92.20
47022;DHT22;32779;52.264;6.154;2022-07-23T15:31:49;25.30;91.50
47022;DHT22;32779;52.264;6.154;2022-07-23T15:34:14;25.40;91.80
47022;DHT22;32779;52.264;6.154;2022-07-23T15:36:40;25.40;92.20
47022;DHT22;32779;52.264;6.154;2022-07-23T15:39:06;25.50;91.20
47022;DHT22;32779;52.264;6.154;2022-07-23T15:41:32;25.60;91.10
47022;DHT22;32779;52.264;6.154;2022-07-23T15:43:57;25.50;91.80
47022;DHT22;32779;52.264;6.154;2022-07-23T15:46:23;25.50;91.80
47022;DHT22;32779;52.264;6.154;2022-07-23T15:48:49;25.40;91.80
47022;DHT22;32779;52.264;6.154;2022-07-23T15:51:14;25.30;92.80
47022;DHT22;32779;52.264;6.154;2022-07-23T15:53:41;25.30;92.50
47022;DHT22;32779;52.264;6.154;2022-07-23T15:56:08;25.40;91.90
47022;DHT22;32779;52.264;6.154;2022-07-23T15:58:34;25.40;91.90
47022;DHT22;32779;52.264;6.154;2022-07-23T16:01:00;25.40;92.10
47022;DHT22;32779;52.264;6.154;2022-07-23T16:03:29;25.30;92.20
47022;DHT22;32779;52.264;6.154;2022-07-23T16:05:55;25.20;91.90
47022;DHT22;32779;52.264;6.154;2022-07-23T16:08:21;25.10;92.10
47022;DHT22;32779;52.264;6.154;2022-07-23T16:10:47;25.00;92.50
47022;DHT22;32779;52.264;6.154;2022-07-23T16:13:12;25.00;92.40
47022;DHT22;32779;52.264;6.154;2022-07-23T16:15:38;25.00;92.20
47022;DHT22;32779;52.264;6.154;2022-07-23T16:18:06;24.90;92.20
47022;DHT22;32779;52.264;6.154;2022-07-23T16:20:34;25.00;92.50
47022;DHT22;32779;52.264;6.154;2022-07-23T16:23:00;24.90;92.40
47022;DHT22;32779;52.264;6.154;2022-07-23T16:25:25;24.90;92.40